sensor_id;sensor_type;location;lat;lon;timestamp;P1;durP1;ratioP1;P2;durP2;ratioP2
67442;SDS011;54311;51.726;5.154;2023-04-06T00:00:21;19.48;;;17.58;;
67442;SDS011;54311;51.726;5.154;2023-04-06T00:02:47;25.10;;;18.40;;
67442;SDS011;54311;51.726;5.154;2023-04-06T00:05:13;22.88;;;19.83;;
67442;SDS011;54311;51.726;5.154;2023-04-06T00:07:38;21.42;;;19.17;;
67442;SDS011;54311;51.726;5.154;2023-04-06T00:10:03;22.08;;;19.45;;
67442;SDS011;54311;51.726;5.154;2023-04-06T00:12:29;26.20;;;19.08;;
67442;SDS011;54311;51.726;5.154;2023-04-06T00:14:55;22.67;;;18.30;;
67442;SDS011;54311;51.726;5.154;2023-04-06T00:17:20;22.70;;;18.70;;
67442;SDS011;54311;51.726;5.154;2023-04-06T00:19:46;22.50;;;18.50;;
67442;SDS011;54311;51.726;5.154;2023-04-06T00:22:11;20.13;;;18.00;;
67442;SDS011;54311;51.726;5.154;2023-04-06T00:24:36;19.90;;;17.77;;
67442;SDS011;54311;51.726;5.154;2023-04-06T00:27:01;19.83;;;17.67;;
67442;SDS011;54311;51.726;5.154;2023-04-06T00:29:28;20.27;;;17.63;;
67442;SDS011;54311;51.726;5.154;2023-04-06T00:31:53;23.10;;;19.55;;
67442;SDS011;54311;51.726;5.154;2023-04-06T00:34:19;21.85;;;18.85;;
67442;SDS011;54311;51.726;5.154;2023-04-06T00:36:44;22.02;;;18.73;;
67442;SDS011;54311;51.726;5.154;2023-04-06T00:39:10;21.27;;;18.20;;
67442;SDS011;54311;51.726;5.154;2023-04-06T00:41:35;20.35;;;18.25;;
67442;SDS011;54311;51.726;5.154;2023-04-06T00:44:00;20.58;;;18.48;;
67442;SDS011;54311;51.726;5.154;2023-04-06T00:46:26;23.48;;;18.80;;
67442;SDS011;54311;51.726;5.154;2023-04-06T00:48:51;23.40;;;18.95;;
67442;SDS011;54311;51.726;5.154;2023-04-06T00:51:16;20.63;;;18.27;;
67442;SDS011;54311;51.726;5.154;2023-04-06T00:53:42;20.30;;;18.20;;
67442;SDS011;54311;51.726;5.154;2023-04-06T00:56:07;21.20;;;18.67;;
67442;SDS011;54311;51.726;5.154;2023-04-06T00:58:34;24.05;;;17.83;;
67442;SDS011;54311;51.726;5.154;2023-04-06T01:01:02;20.58;;;18.38;;
67442;SDS011;54311;51.726;5.154;2023-04-06T01:03:28;21.40;;;18.90;;
67442;SDS011;54311;51.726;5.154;2023-04-06T01:05:53;21.23;;;18.90;;
67442;SDS011;54311;51.726;5.154;2023-04-06T01:08:23;23.63;;;17.70;;
67442;SDS011;54311;51.726;5.154;2023-04-06T01:10:48;23.95;;;19.90;;
67442;SDS011;54311;51.726;5.154;2023-04-06T01:13:14;22.85;;;19.38;;
67442;SDS011;54311;51.726;5.154;2023-04-06T01:15:39;23.02;;;18.77;;
67442;SDS011;54311;51.726;5.154;2023-04-06T01:18:07;22.40;;;19.92;;
67442;SDS011;54311;51.726;5.154;2023-04-06T01:20:35;21.23;;;19.05;;
67442;SDS011;54311;51.726;5.154;2023-04-06T01:23:00;23.80;;;18.92;;
67442;SDS011;54311;51.726;5.154;2023-04-06T01:25:25;23.98;;;19.83;;
67442;SDS011;54311;51.726;5.154;2023-04-06T01:27:51;26.05;;;19.73;;
67442;SDS011;54311;51.726;5.154;2023-04-06T01:30:16;23.42;;;19.95;;
67442;SDS011;54311;51.726;5.154;2023-04-06T01:32:42;22.75;;;18.67;;
67442;SDS011;54311;51.726;5.154;2023-04-06T01:35:07;21.48;;;19.15;;
67442;SDS011;54311;51.726;5.154;2023-04-06T01:37:33;23.35;;;18.80;;
67442;SDS011;54311;51.726;5.154;2023-04-06T01:39:59;21.30;;;18.90;;
67442;SDS011;54311;51.726;5.154;2023-04-06T01:42:25;21.38;;;18.58;;
67442;SDS011;54311;51.726;5.154;2023-04-06T01:44:51;23.35;;;19.02;;
67442;SDS011;54311;51.726;5.154;2023-04-06T01:47:16;23.95;;;19.17;;
67442;SDS011;54311;51.726;5.154;2023-04-06T01:49:41;21.13;;;18.70;;
67442;SDS011;54311;51.726;5.154;2023-04-06T01:52:07;23.27;;;18.67;;
67442;SDS011;54311;51.726;5.154;2023-04-06T01:54:32;23.88;;;20.30;;
67442;SDS011;54311;51.726;5.154;2023-04-06T01:56:58;21.42;;;19.23;;
67442;SDS011;54311;51.726;5.154;2023-04-06T01:59:23;22.13;;;19.40;;
67442;SDS011;54311;51.726;5.154;2023-04-06T02:01:48;23.65;;;19.75;;
67442;SDS011;54311;51.726;5.154;2023-04-06T02:04:14;23.77;;;19.27;;
67442;SDS011;54311;51.726;5.154;2023-04-06T02:06:39;21.90;;;19.60;;
67442;SDS011;54311;51.726;5.154;2023-04-06T02:09:05;24.90;;;19.42;;
67442;SDS011;54311;51.726;5.154;2023-04-06T02:11:30;22.10;;;19.42;;
67442;SDS011;54311;51.726;5.154;2023-04-06T02:13:57;22.02;;;19.40;;
67442;SDS011;54311;51.726;5.154;2023-04-06T02:16:22;25.83;;;19.83;;
67442;SDS011;54311;51.726;5.154;2023-04-06T02:18:47;23.38;;;20.88;;
67442;SDS011;54311;51.726;5.154;2023-04-06T02:21:14;25.70;;;20.80;;
67442;SDS011;54311;51.726;5.154;2023-04-06T02:23:42;23.33;;;20.48;;
67442;SDS011;54311;51.726;5.154;2023-04-06T02:26:07;21.85;;;19.55;;
67442;SDS011;54311;51.726;5.154;2023-04-06T02:28:33;26.50;;;20.35;;
67442;SDS011;54311;51.726;5.154;2023-04-06T02:30:58;22.73;;;19.92;;
67442;SDS011;54311;51.726;5.154;2023-04-06T02:33:23;23.33;;;20.20;;
67442;SDS011;54311;51.726;5.154;2023-04-06T02:35:48;23.83;;;20.85;;
67442;SDS011;54311;51.726;5.154;2023-04-06T02:38:14;29.58;;;22.02;;
67442;SDS011;54311;51.726;5.154;2023-04-06T02:40:39;25.38;;;20.20;;
67442;SDS011;54311;51.726;5.154;2023-04-06T02:43:05;25.83;;;21.55;;
67442;SDS011;54311;51.726;5.154;2023-04-06T02:45:30;23.88;;;20.60;;
67442;SDS011;54311;51.726;5.154;2023-04-06T02:47:56;25.10;;;20.15;;
67442;SDS011;54311;51.726;5.154;2023-04-06T02:50:21;25.30;;;20.52;;
67442;SDS011;54311;51.726;5.154;2023-04-06T02:52:46;24.25;;;21.75;;
67442;SDS011;54311;51.726;5.154;2023-04-06T02:55:12;24.77;;;21.27;;
67442;SDS011;54311;51.726;5.154;2023-04-06T02:57:37;27.20;;;21.48;;
67442;SDS011;54311;51.726;5.154;2023-04-06T03:00:03;24.73;;;22.02;;
67442;SDS011;54311;51.726;5.154;2023-04-06T03:02:28;25.02;;;21.67;;
67442;SDS011;54311;51.726;5.154;2023-04-06T03:04:54;26.48;;;22.38;;
67442;SDS011;54311;51.726;5.154;2023-04-06T03:07:19;23.63;;;21.10;;
67442;SDS011;54311;51.726;5.154;2023-04-06T03:09:45;24.75;;;20.92;;
67442;SDS011;54311;51.726;5.154;2023-04-06T03:12:10;28.48;;;23.25;;
67442;SDS011;54311;51.726;5.154;2023-04-06T03:14:35;28.13;;;21.30;;
67442;SDS011;54311;51.726;5.154;2023-04-06T03:17:01;28.98;;;23.02;;
67442;SDS011;54311;51.726;5.154;2023-04-06T03:19:27;27.23;;;21.77;;
67442;SDS011;54311;51.726;5.154;2023-04-06T03:21:52;27.50;;;23.13;;
67442;SDS011;54311;51.726;5.154;2023-04-06T03:24:17;25.50;;;21.58;;
67442;SDS011;54311;51.726;5.154;2023-04-06T03:26:43;27.80;;;21.33;;
67442;SDS011;54311;51.726;5.154;2023-04-06T03:29:08;25.83;;;22.73;;
67442;SDS011;54311;51.726;5.154;2023-04-06T03:31:33;27.80;;;22.52;;
67442;SDS011;54311;51.726;5.154;2023-04-06T03:33:59;27.95;;;22.98;;
67442;SDS011;54311;51.726;5.154;2023-04-06T03:36:24;28.83;;;22.02;;
67442;SDS011;54311;51.726;5.154;2023-04-06T03:38:51;28.23;;;22.33;;
67442;SDS011;54311;51.726;5.154;2023-04-06T03:41:18;31.55;;;22.58;;
67442;SDS011;54311;51.726;5.154;2023-04-06T03:43:43;29.90;;;23.00;;
67442;SDS011;54311;51.726;5.154;2023-04-06T03:46:09;29.83;;;22.95;;
67442;SDS011;54311;51.726;5.154;2023-04-06T03:48:35;26.58;;;22.65;;
67442;SDS011;54311;51.726;5.154;2023-04-06T03:51:01;28.92;;;22.73;;
67442;SDS011;54311;51.726;5.154;2023-04-06T03:53:26;26.23;;;22.92;;
67442;SDS011;54311;51.726;5.154;2023-04-06T03:55:51;30.15;;;22.92;;
67442;SDS011;54311;51.726;5.154;2023-04-06T03:58:17;26.80;;;22.30;;
67442;SDS011;54311;51.726;5.154;2023-04-06T04:00:42;28.40;;;23.48;;
67442;SDS011;54311;51.726;5.154;2023-04-06T04:03:07;28.77;;;22.77;;
67442;SDS011;54311;51.726;5.154;2023-04-06T04:05:33;28.13;;;22.60;;
67442;SDS011;54311;51.726;5.154;2023-04-06T04:07:58;27.70;;;24.17;;
67442;SDS011;54311;51.726;5.154;2023-04-06T04:10:23;29.20;;;23.90;;
67442;SDS011;54311;51.726;5.154;2023-04-06T04:12:49;28.08;;;23.08;;
67442;SDS011;54311;51.726;5.154;2023-04-06T04:15:14;28.85;;;23.10;;
67442;SDS011;54311;51.726;5.154;2023-04-06T04:17:40;28.25;;;24.73;;
67442;SDS011;54311;51.726;5.154;2023-04-06T04:20:05;28.75;;;24.58;;
67442;SDS011;54311;51.726;5.154;2023-04-06T04:22:31;26.77;;;23.60;;
67442;SDS011;54311;51.726;5.154;2023-04-06T04:24:56;28.98;;;23.85;;
67442;SDS011;54311;51.726;5.154;2023-04-06T04:27:22;39.05;;;25.10;;
67442;SDS011;54311;51.726;5.154;2023-04-06T04:29:47;27.65;;;24.23;;
67442;SDS011;54311;51.726;5.154;2023-04-06T04:32:12;26.25;;;23.38;;
67442;SDS011;54311;51.726;5.154;2023-04-06T04:34:38;33.20;;;24.98;;
67442;SDS011;54311;51.726;5.154;2023-04-06T04:37:06;25.70;;;22.35;;
67442;SDS011;54311;51.726;5.154;2023-04-06T04:39:32;35.08;;;25.58;;
67442;SDS011;54311;51.726;5.154;2023-04-06T04:41:57;26.15;;;23.25;;
67442;SDS011;54311;51.726;5.154;2023-04-06T04:44:22;29.50;;;25.20;;
67442;SDS011;54311;51.726;5.154;2023-04-06T04:46:48;31.92;;;26.35;;
67442;SDS011;54311;51.726;5.154;2023-04-06T04:49:13;30.35;;;25.77;;
67442;SDS011;54311;51.726;5.154;2023-04-06T04:51:38;34.10;;;24.92;;
67442;SDS011;54311;51.726;5.154;2023-04-06T04:54:04;31.27;;;24.58;;
67442;SDS011;54311;51.726;5.154;2023-04-06T04:56:29;30.77;;;25.85;;
67442;SDS011;54311;51.726;5.154;2023-04-06T04:58:54;30.48;;;23.92;;
67442;SDS011;54311;51.726;5.154;2023-04-06T05:01:20;38.05;;;26.50;;
67442;SDS011;54311;51.726;5.154;2023-04-06T05:03:45;31.50;;;24.50;;
67442;SDS011;54311;51.726;5.154;2023-04-06T05:06:10;31.33;;;25.48;;
67442;SDS011;54311;51.726;5.154;2023-04-06T05:08:36;31.60;;;25.73;;
67442;SDS011;54311;51.726;5.154;2023-04-06T05:11:01;29.60;;;25.30;;
67442;SDS011;54311;51.726;5.154;2023-04-06T05:13:27;32.53;;;25.48;;
67442;SDS011;54311;51.726;5.154;2023-04-06T05:15:52;29.58;;;25.27;;
67442;SDS011;54311;51.726;5.154;2023-04-06T05:18:17;35.95;;;27.15;;
67442;SDS011;54311;51.726;5.154;2023-04-06T05:20:43;34.17;;;25.17;;
67442;SDS011;54311;51.726;5.154;2023-04-06T05:23:08;29.88;;;26.05;;
67442;SDS011;54311;51.726;5.154;2023-04-06T05:25:33;32.08;;;25.30;;
67442;SDS011;54311;51.726;5.154;2023-04-06T05:27:59;29.13;;;25.02;;
67442;SDS011;54311;51.726;5.154;2023-04-06T05:30:24;34.38;;;25.77;;
67442;SDS011;54311;51.726;5.154;2023-04-06T05:32:50;33.65;;;25.55;;
67442;SDS011;54311;51.726;5.154;2023-04-06T05:35:15;29.73;;;25.00;;
67442;SDS011;54311;51.726;5.154;2023-04-06T05:37:42;36.80;;;25.00;;
67442;SDS011;54311;51.726;5.154;2023-04-06T05:40:07;30.70;;;24.77;;
67442;SDS011;54311;51.726;5.154;2023-04-06T05:42:39;27.45;;;24.50;;
67442;SDS011;54311;51.726;5.154;2023-04-06T05:45:06;35.75;;;24.33;;
67442;SDS011;54311;51.726;5.154;2023-04-06T05:47:32;31.75;;;25.50;;
67442;SDS011;54311;51.726;5.154;2023-04-06T05:49:57;30.52;;;25.83;;
67442;SDS011;54311;51.726;5.154;2023-04-06T05:52:22;32.22;;;25.92;;
67442;SDS011;54311;51.726;5.154;2023-04-06T05:54:48;35.83;;;26.00;;
67442;SDS011;54311;51.726;5.154;2023-04-06T05:57:13;36.05;;;26.70;;
67442;SDS011;54311;51.726;5.154;2023-04-06T05:59:39;32.45;;;26.30;;
67442;SDS011;54311;51.726;5.154;2023-04-06T06:02:04;32.10;;;25.52;;
67442;SDS011;54311;51.726;5.154;2023-04-06T06:04:30;33.33;;;26.02;;
67442;SDS011;54311;51.726;5.154;2023-04-06T06:06:56;32.05;;;25.75;;
67442;SDS011;54311;51.726;5.154;2023-04-06T06:09:21;31.08;;;25.75;;
67442;SDS011;54311;51.726;5.154;2023-04-06T06:11:46;32.60;;;25.98;;
67442;SDS011;54311;51.726;5.154;2023-04-06T06:14:12;33.70;;;26.80;;
67442;SDS011;54311;51.726;5.154;2023-04-06T06:16:37;33.10;;;26.13;;
67442;SDS011;54311;51.726;5.154;2023-04-06T06:19:02;31.88;;;26.33;;
67442;SDS011;54311;51.726;5.154;2023-04-06T06:21:28;36.13;;;28.33;;
67442;SDS011;54311;51.726;5.154;2023-04-06T06:23:53;33.05;;;27.48;;
67442;SDS011;54311;51.726;5.154;2023-04-06T06:26:19;34.55;;;25.92;;
67442;SDS011;54311;51.726;5.154;2023-04-06T06:28:45;38.05;;;27.02;;
67442;SDS011;54311;51.726;5.154;2023-04-06T06:31:10;45.63;;;32.95;;
67442;SDS011;54311;51.726;5.154;2023-04-06T06:33:35;52.55;;;34.38;;
67442;SDS011;54311;51.726;5.154;2023-04-06T06:36:01;39.38;;;30.67;;
67442;SDS011;54311;51.726;5.154;2023-04-06T06:38:26;33.35;;;26.70;;
67442;SDS011;54311;51.726;5.154;2023-04-06T06:40:51;48.97;;;34.85;;
67442;SDS011;54311;51.726;5.154;2023-04-06T06:43:17;57.85;;;38.90;;
67442;SDS011;54311;51.726;5.154;2023-04-06T06:45:42;50.40;;;36.63;;
67442;SDS011;54311;51.726;5.154;2023-04-06T06:48:08;42.33;;;32.20;;
67442;SDS011;54311;51.726;5.154;2023-04-06T06:50:34;37.45;;;29.52;;
67442;SDS011;54311;51.726;5.154;2023-04-06T06:52:59;38.83;;;30.80;;
67442;SDS011;54311;51.726;5.154;2023-04-06T06:55:25;46.42;;;34.20;;
67442;SDS011;54311;51.726;5.154;2023-04-06T06:57:51;40.78;;;31.73;;
67442;SDS011;54311;51.726;5.154;2023-04-06T07:00:17;38.83;;;29.30;;
67442;SDS011;54311;51.726;5.154;2023-04-06T07:02:43;39.88;;;28.20;;
67442;SDS011;54311;51.726;5.154;2023-04-06T07:05:08;39.00;;;27.98;;
67442;SDS011;54311;51.726;5.154;2023-04-06T07:07:33;39.55;;;28.45;;
67442;SDS011;54311;51.726;5.154;2023-04-06T07:09:59;34.33;;;27.67;;
67442;SDS011;54311;51.726;5.154;2023-04-06T07:12:26;40.78;;;29.38;;
67442;SDS011;54311;51.726;5.154;2023-04-06T07:14:53;36.38;;;29.25;;
67442;SDS011;54311;51.726;5.154;2023-04-06T07:17:18;37.28;;;29.58;;
67442;SDS011;54311;51.726;5.154;2023-04-06T07:19:44;46.28;;;30.92;;
67442;SDS011;54311;51.726;5.154;2023-04-06T07:22:10;42.33;;;29.70;;
67442;SDS011;54311;51.726;5.154;2023-04-06T07:24:35;38.58;;;29.77;;
67442;SDS011;54311;51.726;5.154;2023-04-06T07:27:01;42.55;;;29.80;;
67442;SDS011;54311;51.726;5.154;2023-04-06T07:29:26;38.50;;;29.75;;
67442;SDS011;54311;51.726;5.154;2023-04-06T07:31:52;38.22;;;29.40;;
67442;SDS011;54311;51.726;5.154;2023-04-06T07:34:18;49.75;;;32.08;;
67442;SDS011;54311;51.726;5.154;2023-04-06T07:36:43;39.75;;;30.55;;
67442;SDS011;54311;51.726;5.154;2023-04-06T07:39:09;37.85;;;29.00;;
67442;SDS011;54311;51.726;5.154;2023-04-06T07:41:35;36.47;;;29.02;;
67442;SDS011;54311;51.726;5.154;2023-04-06T07:44:00;40.00;;;30.52;;
67442;SDS011;54311;51.726;5.154;2023-04-06T07:46:26;42.90;;;29.10;;
67442;SDS011;54311;51.726;5.154;2023-04-06T07:48:51;37.67;;;30.27;;
67442;SDS011;54311;51.726;5.154;2023-04-06T07:51:16;36.90;;;29.58;;
67442;SDS011;54311;51.726;5.154;2023-04-06T07:53:43;47.28;;;30.95;;
67442;SDS011;54311;51.726;5.154;2023-04-06T07:56:09;39.80;;;29.90;;
67442;SDS011;54311;51.726;5.154;2023-04-06T07:58:34;44.55;;;31.80;;
67442;SDS011;54311;51.726;5.154;2023-04-06T08:01:00;45.10;;;32.08;;
67442;SDS011;54311;51.726;5.154;2023-04-06T08:03:26;44.58;;;31.50;;
67442;SDS011;54311;51.726;5.154;2023-04-06T08:05:51;40.10;;;29.10;;
67442;SDS011;54311;51.726;5.154;2023-04-06T08:08:17;43.83;;;29.83;;
67442;SDS011;54311;51.726;5.154;2023-04-06T08:10:43;34.92;;;27.83;;
67442;SDS011;54311;51.726;5.154;2023-04-06T08:13:08;39.08;;;28.58;;
67442;SDS011;54311;51.726;5.154;2023-04-06T08:15:33;33.65;;;27.15;;
67442;SDS011;54311;51.726;5.154;2023-04-06T08:17:59;37.92;;;29.77;;
67442;SDS011;54311;51.726;5.154;2023-04-06T08:20:25;36.60;;;28.13;;
67442;SDS011;54311;51.726;5.154;2023-04-06T08:22:51;37.85;;;27.30;;
67442;SDS011;54311;51.726;5.154;2023-04-06T08:25:16;34.30;;;26.58;;
67442;SDS011;54311;51.726;5.154;2023-04-06T08:27:41;36.05;;;26.88;;
67442;SDS011;54311;51.726;5.154;2023-04-06T08:30:07;35.20;;;27.05;;
67442;SDS011;54311;51.726;5.154;2023-04-06T08:32:32;34.95;;;27.05;;
67442;SDS011;54311;51.726;5.154;2023-04-06T08:34:58;39.45;;;27.38;;
67442;SDS011;54311;51.726;5.154;2023-04-06T08:37:23;33.38;;;26.27;;
67442;SDS011;54311;51.726;5.154;2023-04-06T08:39:49;32.90;;;28.08;;
67442;SDS011;54311;51.726;5.154;2023-04-06T08:42:21;33.70;;;28.85;;
67442;SDS011;54311;51.726;5.154;2023-04-06T08:44:50;40.20;;;28.67;;
67442;SDS011;54311;51.726;5.154;2023-04-06T08:47:17;40.15;;;28.02;;
67442;SDS011;54311;51.726;5.154;2023-04-06T08:49:42;39.85;;;29.95;;
67442;SDS011;54311;51.726;5.154;2023-04-06T08:52:10;41.53;;;29.42;;
67442;SDS011;54311;51.726;5.154;2023-04-06T08:54:36;41.60;;;29.08;;
67442;SDS011;54311;51.726;5.154;2023-04-06T08:57:01;37.45;;;28.70;;
67442;SDS011;54311;51.726;5.154;2023-04-06T08:59:27;36.08;;;31.23;;
67442;SDS011;54311;51.726;5.154;2023-04-06T09:01:53;36.25;;;29.55;;
67442;SDS011;54311;51.726;5.154;2023-04-06T09:04:19;34.75;;;27.58;;
67442;SDS011;54311;51.726;5.154;2023-04-06T09:06:45;35.75;;;28.27;;
67442;SDS011;54311;51.726;5.154;2023-04-06T09:09:10;38.20;;;29.35;;
67442;SDS011;54311;51.726;5.154;2023-04-06T09:11:46;41.72;;;30.45;;
67442;SDS011;54311;51.726;5.154;2023-04-06T09:14:12;36.63;;;27.70;;
67442;SDS011;54311;51.726;5.154;2023-04-06T09:16:41;40.10;;;28.23;;
67442;SDS011;54311;51.726;5.154;2023-04-06T09:19:07;32.90;;;27.52;;
67442;SDS011;54311;51.726;5.154;2023-04-06T09:21:33;35.55;;;26.08;;
67442;SDS011;54311;51.726;5.154;2023-04-06T09:23:59;33.08;;;27.58;;
67442;SDS011;54311;51.726;5.154;2023-04-06T09:26:25;37.90;;;27.45;;
67442;SDS011;54311;51.726;5.154;2023-04-06T09:28:52;35.42;;;28.08;;
67442;SDS011;54311;51.726;5.154;2023-04-06T09:31:22;32.88;;;26.30;;
67442;SDS011;54311;51.726;5.154;2023-04-06T09:33:49;33.67;;;27.88;;
67442;SDS011;54311;51.726;5.154;2023-04-06T09:36:15;34.67;;;24.92;;
67442;SDS011;54311;51.726;5.154;2023-04-06T09:38:53;33.33;;;26.05;;
67442;SDS011;54311;51.726;5.154;2023-04-06T09:43:52;31.88;;;22.67;;
67442;SDS011;54311;51.726;5.154;2023-04-06T09:46:18;31.02;;;23.65;;
67442;SDS011;54311;51.726;5.154;2023-04-06T09:48:46;29.65;;;22.55;;
67442;SDS011;54311;51.726;5.154;2023-04-06T09:51:12;23.60;;;20.73;;
67442;SDS011;54311;51.726;5.154;2023-04-06T09:53:39;22.45;;;19.52;;
67442;SDS011;54311;51.726;5.154;2023-04-06T09:56:07;23.58;;;19.40;;
67442;SDS011;54311;51.726;5.154;2023-04-06T09:58:36;23.50;;;19.42;;
67442;SDS011;54311;51.726;5.154;2023-04-06T10:01:07;26.30;;;20.38;;
67442;SDS011;54311;51.726;5.154;2023-04-06T10:03:45;22.27;;;19.20;;
67442;SDS011;54311;51.726;5.154;2023-04-06T10:06:15;25.73;;;19.70;;
67442;SDS011;54311;51.726;5.154;2023-04-06T10:08:42;22.55;;;18.27;;
67442;SDS011;54311;51.726;5.154;2023-04-06T10:11:11;22.33;;;19.95;;
67442;SDS011;54311;51.726;5.154;2023-04-06T10:13:37;21.60;;;18.77;;
67442;SDS011;54311;51.726;5.154;2023-04-06T10:16:02;20.38;;;18.25;;
67442;SDS011;54311;51.726;5.154;2023-04-06T10:18:27;22.23;;;19.10;;
67442;SDS011;54311;51.726;5.154;2023-04-06T10:20:55;24.17;;;18.00;;
67442;SDS011;54311;51.726;5.154;2023-04-06T10:25:53;20.13;;;17.83;;
67442;SDS011;54311;51.726;5.154;2023-04-06T10:28:19;19.60;;;16.83;;
67442;SDS011;54311;51.726;5.154;2023-04-06T10:30:45;18.13;;;16.35;;
67442;SDS011;54311;51.726;5.154;2023-04-06T10:33:13;16.67;;;14.45;;
67442;SDS011;54311;51.726;5.154;2023-04-06T10:35:43;16.15;;;14.57;;
67442;SDS011;54311;51.726;5.154;2023-04-06T10:38:08;15.07;;;13.60;;
67442;SDS011;54311;51.726;5.154;2023-04-06T10:40:37;18.42;;;15.13;;
67442;SDS011;54311;51.726;5.154;2023-04-06T10:43:13;15.63;;;13.73;;
67442;SDS011;54311;51.726;5.154;2023-04-06T10:45:42;16.65;;;14.52;;
67442;SDS011;54311;51.726;5.154;2023-04-06T10:48:14;15.68;;;14.20;;
67442;SDS011;54311;51.726;5.154;2023-04-06T10:50:44;15.98;;;14.38;;
67442;SDS011;54311;51.726;5.154;2023-04-06T10:53:19;16.38;;;14.73;;
67442;SDS011;54311;51.726;5.154;2023-04-06T10:55:52;15.65;;;14.00;;
67442;SDS011;54311;51.726;5.154;2023-04-06T10:58:20;18.08;;;15.68;;
67442;SDS011;54311;51.726;5.154;2023-04-06T11:00:46;17.17;;;15.35;;
67442;SDS011;54311;51.726;5.154;2023-04-06T11:03:12;17.83;;;15.27;;
67442;SDS011;54311;51.726;5.154;2023-04-06T11:05:38;17.40;;;15.65;;
67442;SDS011;54311;51.726;5.154;2023-04-06T11:08:03;17.92;;;14.95;;
67442;SDS011;54311;51.726;5.154;2023-04-06T11:10:29;17.27;;;15.50;;
67442;SDS011;54311;51.726;5.154;2023-04-06T11:12:55;18.27;;;15.60;;
67442;SDS011;54311;51.726;5.154;2023-04-06T11:15:22;19.20;;;16.55;;
67442;SDS011;54311;51.726;5.154;2023-04-06T11:17:48;16.83;;;15.13;;
67442;SDS011;54311;51.726;5.154;2023-04-06T11:20:14;19.25;;;16.02;;
67442;SDS011;54311;51.726;5.154;2023-04-06T11:22:49;18.60;;;16.38;;
67442;SDS011;54311;51.726;5.154;2023-04-06T11:25:17;19.83;;;16.17;;
67442;SDS011;54311;51.726;5.154;2023-04-06T11:27:42;17.85;;;16.05;;
67442;SDS011;54311;51.726;5.154;2023-04-06T11:30:09;18.42;;;15.77;;
67442;SDS011;54311;51.726;5.154;2023-04-06T11:32:41;18.75;;;16.75;;
67442;SDS011;54311;51.726;5.154;2023-04-06T11:35:10;18.50;;;16.60;;
67442;SDS011;54311;51.726;5.154;2023-04-06T11:37:48;19.60;;;16.77;;
67442;SDS011;54311;51.726;5.154;2023-04-06T11:40:14;19.42;;;17.20;;
67442;SDS011;54311;51.726;5.154;2023-04-06T11:42:40;22.73;;;16.85;;
67442;SDS011;54311;51.726;5.154;2023-04-06T11:45:06;18.55;;;16.65;;
67442;SDS011;54311;51.726;5.154;2023-04-06T11:47:33;20.95;;;16.63;;
67442;SDS011;54311;51.726;5.154;2023-04-06T11:50:09;19.42;;;17.05;;
67442;SDS011;54311;51.726;5.154;2023-04-06T11:52:36;18.77;;;16.88;;
67442;SDS011;54311;51.726;5.154;2023-04-06T11:55:11;19.90;;;17.63;;
67442;SDS011;54311;51.726;5.154;2023-04-06T11:57:41;20.27;;;16.30;;
67442;SDS011;54311;51.726;5.154;2023-04-06T12:00:08;18.02;;;15.75;;
67442;SDS011;54311;51.726;5.154;2023-04-06T12:02:34;18.55;;;16.65;;
67442;SDS011;54311;51.726;5.154;2023-04-06T12:05:01;17.63;;;15.82;;
67442;SDS011;54311;51.726;5.154;2023-04-06T12:07:26;20.13;;;18.02;;
67442;SDS011;54311;51.726;5.154;2023-04-06T12:09:52;19.50;;;17.23;;
67442;SDS011;54311;51.726;5.154;2023-04-06T12:12:17;19.52;;;17.48;;
67442;SDS011;54311;51.726;5.154;2023-04-06T12:14:42;19.83;;;17.50;;
67442;SDS011;54311;51.726;5.154;2023-04-06T12:17:08;21.83;;;17.75;;
67442;SDS011;54311;51.726;5.154;2023-04-06T12:19:33;21.63;;;17.70;;
67442;SDS011;54311;51.726;5.154;2023-04-06T12:21:58;19.85;;;17.75;;
67442;SDS011;54311;51.726;5.154;2023-04-06T12:24:24;20.52;;;17.40;;
67442;SDS011;54311;51.726;5.154;2023-04-06T12:26:49;21.83;;;17.80;;
67442;SDS011;54311;51.726;5.154;2023-04-06T12:29:15;22.95;;;18.85;;
67442;SDS011;54311;51.726;5.154;2023-04-06T12:31:40;22.65;;;18.77;;
67442;SDS011;54311;51.726;5.154;2023-04-06T12:34:07;20.90;;;18.13;;
67442;SDS011;54311;51.726;5.154;2023-04-06T12:36:33;21.42;;;19.13;;
67442;SDS011;54311;51.726;5.154;2023-04-06T12:38:58;20.45;;;18.25;;
67442;SDS011;54311;51.726;5.154;2023-04-06T12:41:25;20.17;;;18.08;;
67442;SDS011;54311;51.726;5.154;2023-04-06T12:43:50;22.60;;;19.20;;
67442;SDS011;54311;51.726;5.154;2023-04-06T12:46:16;24.25;;;19.08;;
67442;SDS011;54311;51.726;5.154;2023-04-06T12:48:41;20.83;;;18.65;;
67442;SDS011;54311;51.726;5.154;2023-04-06T12:51:07;21.90;;;19.00;;
67442;SDS011;54311;51.726;5.154;2023-04-06T12:53:32;22.13;;;18.65;;
67442;SDS011;54311;51.726;5.154;2023-04-06T12:55:58;22.13;;;19.02;;
67442;SDS011;54311;51.726;5.154;2023-04-06T12:58:24;21.65;;;19.45;;
67442;SDS011;54311;51.726;5.154;2023-04-06T13:00:51;21.45;;;19.25;;
67442;SDS011;54311;51.726;5.154;2023-04-06T13:03:17;21.58;;;19.35;;
67442;SDS011;54311;51.726;5.154;2023-04-06T13:05:44;23.30;;;19.42;;
67442;SDS011;54311;51.726;5.154;2023-04-06T13:08:10;23.25;;;19.45;;
67442;SDS011;54311;51.726;5.154;2023-04-06T13:10:36;24.58;;;20.15;;
67442;SDS011;54311;51.726;5.154;2023-04-06T13:13:01;21.83;;;19.52;;
67442;SDS011;54311;51.726;5.154;2023-04-06T13:15:27;22.27;;;19.95;;
67442;SDS011;54311;51.726;5.154;2023-04-06T13:17:52;25.85;;;20.48;;
67442;SDS011;54311;51.726;5.154;2023-04-06T13:20:18;20.08;;;18.02;;
67442;SDS011;54311;51.726;5.154;2023-04-06T13:22:43;21.83;;;19.27;;
67442;SDS011;54311;51.726;5.154;2023-04-06T13:25:08;25.27;;;19.58;;
67442;SDS011;54311;51.726;5.154;2023-04-06T13:27:34;21.52;;;19.23;;
67442;SDS011;54311;51.726;5.154;2023-04-06T13:30:01;22.30;;;19.33;;
67442;SDS011;54311;51.726;5.154;2023-04-06T13:32:27;24.90;;;19.70;;
67442;SDS011;54311;51.726;5.154;2023-04-06T13:34:56;25.08;;;20.67;;
67442;SDS011;54311;51.726;5.154;2023-04-06T13:37:22;21.58;;;19.33;;
67442;SDS011;54311;51.726;5.154;2023-04-06T13:39:47;21.85;;;19.50;;
67442;SDS011;54311;51.726;5.154;2023-04-06T13:42:13;23.33;;;19.52;;
67442;SDS011;54311;51.726;5.154;2023-04-06T13:44:38;21.25;;;19.05;;
67442;SDS011;54311;51.726;5.154;2023-04-06T13:47:03;21.63;;;19.13;;
67442;SDS011;54311;51.726;5.154;2023-04-06T13:49:29;21.35;;;18.98;;
67442;SDS011;54311;51.726;5.154;2023-04-06T13:51:55;22.52;;;20.20;;
67442;SDS011;54311;51.726;5.154;2023-04-06T13:54:20;20.80;;;18.60;;
67442;SDS011;54311;51.726;5.154;2023-04-06T13:56:45;22.20;;;19.92;;
67442;SDS011;54311;51.726;5.154;2023-04-06T13:59:11;20.85;;;18.75;;
67442;SDS011;54311;51.726;5.154;2023-04-06T14:01:36;21.55;;;17.90;;
67442;SDS011;54311;51.726;5.154;2023-04-06T14:04:02;20.52;;;18.27;;
67442;SDS011;54311;51.726;5.154;2023-04-06T14:06:27;20.33;;;18.23;;
67442;SDS011;54311;51.726;5.154;2023-04-06T14:08:53;20.98;;;18.25;;
67442;SDS011;54311;51.726;5.154;2023-04-06T14:11:18;20.77;;;17.92;;
67442;SDS011;54311;51.726;5.154;2023-04-06T14:13:44;19.10;;;17.20;;
67442;SDS011;54311;51.726;5.154;2023-04-06T14:16:09;19.85;;;17.92;;
67442;SDS011;54311;51.726;5.154;2023-04-06T14:18:36;19.13;;;17.30;;